sensor_id;sensor_type;location;lat;lon;timestamp;pressure;altitude;pressure_sealevel;temperature;humidity
70256;BME280;57669;52.624;-1.688;2023-02-04T00:00:29;102943.04;;;10.11;48.03
70256;BME280;57669;52.624;-1.688;2023-02-04T00:02:54;102936.86;;;9.42;49.20
70256;BME280;57669;52.624;-1.688;2023-02-04T00:05:20;102936.22;;;10.28;48.63
70256;BME280;57669;52.624;-1.688;2023-02-04T00:10:13;102931.87;;;10.07;48.26
70256;BME280;57669;52.624;-1.688;2023-02-04T00:12:37;102931.98;;;10.25;48.27
70256;BME280;57669;52.624;-1.688;2023-02-04T00:15:04;102935.87;;;10.22;48.36
70256;BME280;57669;52.624;-1.688;2023-02-04T00:17:29;102934.08;;;9.96;48.84
70256;BME280;57669;52.624;-1.688;2023-02-04T00:19:54;102938.01;;;10.05;49.31
70256;BME280;57669;52.624;-1.688;2023-02-04T00:22:20;102938.01;;;10.52;47.95
70256;BME280;57669;52.624;-1.688;2023-02-04T00:24:46;102939.32;;;9.81;49.30
70256;BME280;57669;52.624;-1.688;2023-02-04T00:27:12;102938.67;;;9.75;49.99
70256;BME280;57669;52.624;-1.688;2023-02-04T00:29:37;102941.43;;;9.68;50.32
70256;BME280;57669;52.624;-1.688;2023-02-04T00:32:03;102941.59;;;8.91;51.80
70256;BME280;57669;52.624;-1.688;2023-02-04T00:34:28;102940.94;;;9.07;51.64
70256;BME280;57669;52.624;-1.688;2023-02-04T00:36:54;102939.63;;;9.21;51.90
70256;BME280;57669;52.624;-1.688;2023-02-04T00:39:20;102945.62;;;9.78;50.47
70256;BME280;57669;52.624;-1.688;2023-02-04T00:41:46;102942.43;;;9.52;51.00
70256;BME280;57669;52.624;-1.688;2023-02-04T00:44:11;102944.87;;;9.38;50.63
70256;BME280;57669;52.624;-1.688;2023-02-04T00:46:37;102943.98;;;10.03;49.89
70256;BME280;57669;52.624;-1.688;2023-02-04T00:49:03;102940.70;;;9.33;51.12
70256;BME280;57669;52.624;-1.688;2023-02-04T00:51:28;102945.27;;;9.59;50.88
70256;BME280;57669;52.624;-1.688;2023-02-04T00:53:54;102947.16;;;9.93;50.27
70256;BME280;57669;52.624;-1.688;2023-02-04T00:56:20;102945.55;;;9.50;50.47
70256;BME280;57669;52.624;-1.688;2023-02-04T00:58:46;102943.21;;;9.66;50.36
70256;BME280;57669;52.624;-1.688;2023-02-04T01:01:12;102946.67;;;9.85;49.58
70256;BME280;57669;52.624;-1.688;2023-02-04T01:03:37;102945.04;;;10.20;48.80
70256;BME280;57669;52.624;-1.688;2023-02-04T01:06:03;102949.10;;;9.65;50.09
70256;BME280;57669;52.624;-1.688;2023-02-04T01:08:29;102946.31;;;10.34;48.92
70256;BME280;57669;52.624;-1.688;2023-02-04T01:10:55;102951.07;;;10.40;49.41
70256;BME280;57669;52.624;-1.688;2023-02-04T01:13:20;102951.17;;;10.65;48.09
70256;BME280;57669;52.624;-1.688;2023-02-04T01:15:46;102951.51;;;10.15;48.84
70256;BME280;57669;52.624;-1.688;2023-02-04T01:18:12;102952.01;;;10.01;50.16
70256;BME280;57669;52.624;-1.688;2023-02-04T01:20:38;102955.90;;;9.81;50.11
70256;BME280;57669;52.624;-1.688;2023-02-04T01:23:03;102960.19;;;9.67;50.33
70256;BME280;57669;52.624;-1.688;2023-02-04T01:25:29;102964.09;;;9.06;53.04
70256;BME280;57669;52.624;-1.688;2023-02-04T01:27:55;102959.64;;;9.10;52.16
70256;BME280;57669;52.624;-1.688;2023-02-04T01:30:20;102961.33;;;9.12;53.29
70256;BME280;57669;52.624;-1.688;2023-02-04T01:32:46;102961.22;;;9.38;52.75
70256;BME280;57669;52.624;-1.688;2023-02-04T01:35:12;102964.46;;;9.05;52.44
70256;BME280;57669;52.624;-1.688;2023-02-04T01:37:38;102960.45;;;9.41;51.81
70256;BME280;57669;52.624;-1.688;2023-02-04T01:40:04;102965.27;;;9.67;51.33
70256;BME280;57669;52.624;-1.688;2023-02-04T01:42:29;102966.76;;;9.97;50.69
70256;BME280;57669;52.624;-1.688;2023-02-04T01:45:05;102967.46;;;9.18;52.30
70256;BME280;57669;52.624;-1.688;2023-02-04T01:47:21;102973.70;;;8.63;54.64
70256;BME280;57669;52.624;-1.688;2023-02-04T01:49:51;102971.15;;;8.98;53.45
70256;BME280;57669;52.624;-1.688;2023-02-04T01:52:12;102969.83;;;9.11;53.19
70256;BME280;57669;52.624;-1.688;2023-02-04T01:54:38;102975.92;;;8.93;54.20
70256;BME280;57669;52.624;-1.688;2023-02-04T01:57:05;102974.95;;;8.51;54.88
70256;BME280;57669;52.624;-1.688;2023-02-04T01:59:30;102979.64;;;8.39;55.52
70256;BME280;57669;52.624;-1.688;2023-02-04T02:01:56;102980.99;;;8.78;54.01
70256;BME280;57669;52.624;-1.688;2023-02-04T02:04:28;102977.21;;;9.28;52.98
70256;BME280;57669;52.624;-1.688;2023-02-04T02:06:52;102983.07;;;8.91;54.31
70256;BME280;57669;52.624;-1.688;2023-02-04T02:09:13;102986.95;;;8.77;54.82
70256;BME280;57669;52.624;-1.688;2023-02-04T02:11:39;102984.82;;;8.61;55.15
70256;BME280;57669;52.624;-1.688;2023-02-04T02:14:05;102983.47;;;8.98;53.79
70256;BME280;57669;52.624;-1.688;2023-02-04T02:16:30;102983.89;;;9.14;54.08
70256;BME280;57669;52.624;-1.688;2023-02-04T02:18:56;102977.01;;;9.22;53.32
70256;BME280;57669;52.624;-1.688;2023-02-04T02:21:28;102983.14;;;8.39;56.06
70256;BME280;57669;52.624;-1.688;2023-02-04T02:23:50;102981.34;;;8.77;55.31
70256;BME280;57669;52.624;-1.688;2023-02-04T02:26:15;102977.13;;;8.68;56.12
70256;BME280;57669;52.624;-1.688;2023-02-04T02:28:39;102978.13;;;8.54;56.07
70256;BME280;57669;52.624;-1.688;2023-02-04T02:31:05;102977.51;;;7.97;57.70
70256;BME280;57669;52.624;-1.688;2023-02-04T02:33:31;102977.42;;;8.88;55.86
70256;BME280;57669;52.624;-1.688;2023-02-04T02:36:02;102977.49;;;8.24;57.38
70256;BME280;57669;52.624;-1.688;2023-02-04T02:38:23;102969.81;;;8.02;57.28
70256;BME280;57669;52.624;-1.688;2023-02-04T02:40:49;102972.66;;;8.65;56.29
70256;BME280;57669;52.624;-1.688;2023-02-04T02:43:16;102975.64;;;8.92;55.77
70256;BME280;57669;52.624;-1.688;2023-02-04T02:45:40;102976.86;;;8.79;56.08
70256;BME280;57669;52.624;-1.688;2023-02-04T02:48:06;102976.57;;;8.37;56.91
70256;BME280;57669;52.624;-1.688;2023-02-04T02:50:32;102973.06;;;7.37;59.26
70256;BME280;57669;52.624;-1.688;2023-02-04T02:52:58;102968.85;;;7.98;58.73
70256;BME280;57669;52.624;-1.688;2023-02-04T02:55:25;102970.21;;;7.38;59.42
70256;BME280;57669;52.624;-1.688;2023-02-04T02:57:51;102964.94;;;8.02;58.31
70256;BME280;57669;52.624;-1.688;2023-02-04T03:00:17;102966.70;;;7.13;60.04
70256;BME280;57669;52.624;-1.688;2023-02-04T03:02:41;102966.48;;;7.22;59.74
70256;BME280;57669;52.624;-1.688;2023-02-04T03:05:06;102966.37;;;7.09;60.78
70256;BME280;57669;52.624;-1.688;2023-02-04T03:07:32;102962.68;;;7.71;60.10
70256;BME280;57669;52.624;-1.688;2023-02-04T03:09:58;102967.70;;;7.31;59.91
70256;BME280;57669;52.624;-1.688;2023-02-04T03:12:24;102965.86;;;7.79;58.70
70256;BME280;57669;52.624;-1.688;2023-02-04T03:14:49;102965.13;;;7.80;59.40
70256;BME280;57669;52.624;-1.688;2023-02-04T03:17:15;102963.89;;;7.56;59.87
70256;BME280;57669;52.624;-1.688;2023-02-04T03:19:41;102959.62;;;7.46;60.71
70256;BME280;57669;52.624;-1.688;2023-02-04T03:22:10;102956.81;;;7.74;59.12
70256;BME280;57669;52.624;-1.688;2023-02-04T03:24:33;102963.72;;;8.10;58.17
70256;BME280;57669;52.624;-1.688;2023-02-04T03:26:59;102963.79;;;7.36;59.77
70256;BME280;57669;52.624;-1.688;2023-02-04T03:29:24;102960.48;;;7.62;58.87
70256;BME280;57669;52.624;-1.688;2023-02-04T03:31:50;102960.69;;;7.76;59.20
70256;BME280;57669;52.624;-1.688;2023-02-04T03:34:16;102960.69;;;8.12;58.90
70256;BME280;57669;52.624;-1.688;2023-02-04T03:36:42;102963.87;;;8.40;57.64
70256;BME280;57669;52.624;-1.688;2023-02-04T03:39:07;102963.78;;;7.26;60.80
70256;BME280;57669;52.624;-1.688;2023-02-04T03:41:33;102963.06;;;7.40;61.24
70256;BME280;57669;52.624;-1.688;2023-02-04T03:43:59;102958.74;;;7.37;61.52
70256;BME280;57669;52.624;-1.688;2023-02-04T03:46:25;102955.57;;;7.50;60.71
70256;BME280;57669;52.624;-1.688;2023-02-04T03:48:50;102947.27;;;7.78;59.99
70256;BME280;57669;52.624;-1.688;2023-02-04T03:51:16;102951.81;;;7.15;61.81
70256;BME280;57669;52.624;-1.688;2023-02-04T03:53:42;102957.25;;;6.91;62.19
70256;BME280;57669;52.624;-1.688;2023-02-04T03:56:08;102957.86;;;7.21;62.47
70256;BME280;57669;52.624;-1.688;2023-02-04T03:58:34;102961.24;;;7.27;60.83
70256;BME280;57669;52.624;-1.688;2023-02-04T04:01:00;102960.40;;;7.32;60.44
70256;BME280;57669;52.624;-1.688;2023-02-04T04:03:25;102959.45;;;7.38;61.65
70256;BME280;57669;52.624;-1.688;2023-02-04T04:05:51;102965.00;;;6.97;62.66
70256;BME280;57669;52.624;-1.688;2023-02-04T04:08:17;102969.11;;;6.76;63.16
70256;BME280;57669;52.624;-1.688;2023-02-04T04:10:43;102967.80;;;6.75;63.25
70256;BME280;57669;52.624;-1.688;2023-02-04T04:13:09;102965.67;;;7.47;61.09
70256;BME280;57669;52.624;-1.688;2023-02-04T04:15:34;102971.26;;;6.88;62.93
70256;BME280;57669;52.624;-1.688;2023-02-04T04:18:00;102965.26;;;7.40;62.17
70256;BME280;57669;52.624;-1.688;2023-02-04T04:20:26;102968.43;;;6.77;62.63
70256;BME280;57669;52.624;-1.688;2023-02-04T04:22:52;102962.07;;;7.33;61.76
70256;BME280;57669;52.624;-1.688;2023-02-04T04:25:18;102962.20;;;7.30;60.75
70256;BME280;57669;52.624;-1.688;2023-02-04T04:27:43;102962.00;;;7.61;59.99
70256;BME280;57669;52.624;-1.688;2023-02-04T04:30:10;102962.11;;;7.45;60.28
70256;BME280;57669;52.624;-1.688;2023-02-04T04:32:35;102967.40;;;7.49;61.40
70256;BME280;57669;52.624;-1.688;2023-02-04T04:35:01;102971.82;;;7.41;61.59
70256;BME280;57669;52.624;-1.688;2023-02-04T04:37:27;102974.70;;;7.13;61.80
70256;BME280;57669;52.624;-1.688;2023-02-04T04:39:52;102976.24;;;7.78;60.18
70256;BME280;57669;52.624;-1.688;2023-02-04T04:42:19;102976.75;;;7.15;61.74
70256;BME280;57669;52.624;-1.688;2023-02-04T04:44:44;102983.48;;;7.60;60.53
70256;BME280;57669;52.624;-1.688;2023-02-04T04:47:10;102987.42;;;7.57;60.50
70256;BME280;57669;52.624;-1.688;2023-02-04T04:49:36;102988.37;;;7.73;60.00
70256;BME280;57669;52.624;-1.688;2023-02-04T04:52:02;102987.62;;;7.66;59.53
70256;BME280;57669;52.624;-1.688;2023-02-04T04:54:27;102996.07;;;7.11;61.87
70256;BME280;57669;52.624;-1.688;2023-02-04T04:56:53;102993.80;;;7.12;61.97
70256;BME280;57669;52.624;-1.688;2023-02-04T04:59:19;102988.84;;;7.25;61.15
70256;BME280;57669;52.624;-1.688;2023-02-04T05:01:45;102994.53;;;7.15;61.33
70256;BME280;57669;52.624;-1.688;2023-02-04T05:04:11;102997.67;;;6.89;62.34
70256;BME280;57669;52.624;-1.688;2023-02-04T05:06:37;102997.76;;;6.96;61.61
70256;BME280;57669;52.624;-1.688;2023-02-04T05:09:03;102992.24;;;7.26;61.40
70256;BME280;57669;52.624;-1.688;2023-02-04T05:11:28;102997.80;;;6.87;61.08
70256;BME280;57669;52.624;-1.688;2023-02-04T05:13:54;102996.34;;;7.42;60.52
70256;BME280;57669;52.624;-1.688;2023-02-04T05:16:20;103005.48;;;6.91;62.12
70256;BME280;57669;52.624;-1.688;2023-02-04T05:18:46;103000.63;;;6.67;62.73
70256;BME280;57669;52.624;-1.688;2023-02-04T05:21:11;103002.46;;;6.54;63.42
70256;BME280;57669;52.624;-1.688;2023-02-04T05:23:37;103003.36;;;6.19;63.76
70256;BME280;57669;52.624;-1.688;2023-02-04T05:26:03;103000.63;;;6.54;62.08
70256;BME280;57669;52.624;-1.688;2023-02-04T05:28:29;103000.03;;;7.39;60.49
70256;BME280;57669;52.624;-1.688;2023-02-04T05:30:54;103006.59;;;6.73;62.81
70256;BME280;57669;52.624;-1.688;2023-02-04T05:33:19;103000.07;;;7.13;62.05
70256;BME280;57669;52.624;-1.688;2023-02-04T05:35:46;103004.51;;;7.11;61.44
70256;BME280;57669;52.624;-1.688;2023-02-04T05:38:11;103006.11;;;6.27;63.40
70256;BME280;57669;52.624;-1.688;2023-02-04T05:40:37;103001.75;;;6.33;63.52
70256;BME280;57669;52.624;-1.688;2023-02-04T05:45:28;103007.38;;;6.91;61.58
70256;BME280;57669;52.624;-1.688;2023-02-04T05:47:54;103009.24;;;6.50;62.62
70256;BME280;57669;52.624;-1.688;2023-02-04T05:50:20;103010.82;;;6.54;62.33
70256;BME280;57669;52.624;-1.688;2023-02-04T05:52:46;103016.02;;;6.43;62.99
70256;BME280;57669;52.624;-1.688;2023-02-04T05:55:12;103015.73;;;6.74;63.06
70256;BME280;57669;52.624;-1.688;2023-02-04T05:57:38;103020.90;;;6.48;62.91
70256;BME280;57669;52.624;-1.688;2023-02-04T06:00:05;103024.05;;;6.24;63.41
70256;BME280;57669;52.624;-1.688;2023-02-04T06:02:29;103025.83;;;6.36;63.06
70256;BME280;57669;52.624;-1.688;2023-02-04T06:04:55;103027.32;;;6.09;63.20
70256;BME280;57669;52.624;-1.688;2023-02-04T06:07:21;103025.70;;;6.18;63.58
70256;BME280;57669;52.624;-1.688;2023-02-04T06:09:46;103029.62;;;5.92;64.10
70256;BME280;57669;52.624;-1.688;2023-02-04T06:12:12;103032.47;;;5.54;65.43
70256;BME280;57669;52.624;-1.688;2023-02-04T06:14:37;103029.53;;;5.40;66.05
70256;BME280;57669;52.624;-1.688;2023-02-04T06:17:03;103030.41;;;5.81;65.52
70256;BME280;57669;52.624;-1.688;2023-02-04T06:19:28;103034.46;;;5.68;65.18
70256;BME280;57669;52.624;-1.688;2023-02-04T06:21:53;103039.14;;;5.98;64.34
70256;BME280;57669;52.624;-1.688;2023-02-04T06:24:19;103041.71;;;5.70;64.08
70256;BME280;57669;52.624;-1.688;2023-02-04T06:26:44;103041.49;;;5.66;64.63
70256;BME280;57669;52.624;-1.688;2023-02-04T06:29:10;103037.56;;;6.73;62.16
70256;BME280;57669;52.624;-1.688;2023-02-04T06:31:35;103032.64;;;5.70;64.92
70256;BME280;57669;52.624;-1.688;2023-02-04T06:34:01;103037.05;;;5.52;63.96
70256;BME280;57669;52.624;-1.688;2023-02-04T06:38:53;103043.33;;;6.42;61.64
70256;BME280;57669;52.624;-1.688;2023-02-04T06:41:18;103041.97;;;6.70;60.18
70256;BME280;57669;52.624;-1.688;2023-02-04T06:43:44;103045.05;;;6.14;61.03
70256;BME280;57669;52.624;-1.688;2023-02-04T06:46:10;103046.72;;;5.95;62.55
70256;BME280;57669;52.624;-1.688;2023-02-04T06:48:35;103050.48;;;6.03;62.04
70256;BME280;57669;52.624;-1.688;2023-02-04T06:51:01;103049.56;;;6.01;61.35
70256;BME280;57669;52.624;-1.688;2023-02-04T06:53:27;103049.64;;;6.18;60.39
70256;BME280;57669;52.624;-1.688;2023-02-04T06:55:53;103048.35;;;6.44;60.32
70256;BME280;57669;52.624;-1.688;2023-02-04T06:58:18;103046.38;;;6.56;59.46
70256;BME280;57669;52.624;-1.688;2023-02-04T07:00:44;103043.04;;;6.20;60.50
70256;BME280;57669;52.624;-1.688;2023-02-04T07:05:35;103045.88;;;6.42;59.78
70256;BME280;57669;52.624;-1.688;2023-02-04T07:08:01;103051.27;;;6.13;59.55
70256;BME280;57669;52.624;-1.688;2023-02-04T07:10:27;103057.40;;;6.39;58.14
70256;BME280;57669;52.624;-1.688;2023-02-04T07:13:03;103059.50;;;7.07;56.83
70256;BME280;57669;52.624;-1.688;2023-02-04T07:15:19;103060.56;;;7.10;56.32
70256;BME280;57669;52.624;-1.688;2023-02-04T07:17:45;103064.93;;;6.60;57.03
70256;BME280;57669;52.624;-1.688;2023-02-04T07:20:11;103070.60;;;7.05;56.05
70256;BME280;57669;52.624;-1.688;2023-02-04T07:22:36;103071.01;;;5.99;57.77
70256;BME280;57669;52.624;-1.688;2023-02-04T07:25:03;103071.13;;;5.98;57.85
70256;BME280;57669;52.624;-1.688;2023-02-04T07:27:28;103075.55;;;6.80;56.71
70256;BME280;57669;52.624;-1.688;2023-02-04T07:29:54;103076.70;;;6.79;56.77
70256;BME280;57669;52.624;-1.688;2023-02-04T07:32:19;103081.00;;;6.26;58.62
70256;BME280;57669;52.624;-1.688;2023-02-04T07:34:44;103086.42;;;6.26;57.92
70256;BME280;57669;52.624;-1.688;2023-02-04T07:37:10;103086.72;;;6.73;57.25
70256;BME280;57669;52.624;-1.688;2023-02-04T07:39:35;103088.37;;;5.79;58.84
70256;BME280;57669;52.624;-1.688;2023-02-04T07:42:00;103088.04;;;6.58;57.11
70256;BME280;57669;52.624;-1.688;2023-02-04T07:44:26;103090.41;;;6.78;56.48
70256;BME280;57669;52.624;-1.688;2023-02-04T07:46:52;103093.65;;;6.95;55.79
70256;BME280;57669;52.624;-1.688;2023-02-04T07:49:17;103092.99;;;6.68;56.53
70256;BME280;57669;52.624;-1.688;2023-02-04T07:51:42;103090.57;;;6.32;57.41
70256;BME280;57669;52.624;-1.688;2023-02-04T07:54:08;103095.12;;;6.27;57.33
70256;BME280;57669;52.624;-1.688;2023-02-04T07:56:33;103097.14;;;6.94;55.54
70256;BME280;57669;52.624;-1.688;2023-02-04T07:58:59;103098.09;;;7.30;54.54
70256;BME280;57669;52.624;-1.688;2023-02-04T08:01:24;103101.79;;;6.31;56.43
70256;BME280;57669;52.624;-1.688;2023-02-04T08:03:50;103108.75;;;6.55;55.46
70256;BME280;57669;52.624;-1.688;2023-02-04T08:06:15;103111.27;;;6.50;56.17
70256;BME280;57669;52.624;-1.688;2023-02-04T08:08:41;103114.11;;;6.64;55.83
70256;BME280;57669;52.624;-1.688;2023-02-04T08:11:06;103108.10;;;6.37;55.87
70256;BME280;57669;52.624;-1.688;2023-02-04T08:13:31;103111.52;;;6.54;56.50
70256;BME280;57669;52.624;-1.688;2023-02-04T08:15:57;103114.69;;;6.88;54.89
70256;BME280;57669;52.624;-1.688;2023-02-04T08:18:23;103114.18;;;6.94;54.94
70256;BME280;57669;52.624;-1.688;2023-02-04T08:20:49;103112.63;;;6.98;54.71
70256;BME280;57669;52.624;-1.688;2023-02-04T08:23:14;103112.24;;;7.17;53.47
70256;BME280;57669;52.624;-1.688;2023-02-04T08:25:40;103117.48;;;7.48;53.49
70256;BME280;57669;52.624;-1.688;2023-02-04T08:28:06;103123.47;;;7.07;53.72
70256;BME280;57669;52.624;-1.688;2023-02-04T08:30:31;103127.49;;;7.46;52.54
70256;BME280;57669;52.624;-1.688;2023-02-04T08:32:57;103138.75;;;7.15;52.74
70256;BME280;57669;52.624;-1.688;2023-02-04T08:35:23;103139.72;;;7.01;53.14
70256;BME280;57669;52.624;-1.688;2023-02-04T08:37:48;103142.23;;;7.13;52.67
70256;BME280;57669;52.624;-1.688;2023-02-04T08:40:14;103139.45;;;7.05;53.16
70256;BME280;57669;52.624;-1.688;2023-02-04T08:42:40;103147.02;;;6.77;53.06
70256;BME280;57669;52.624;-1.688;2023-02-04T08:45:06;103140.12;;;7.18;52.73
70256;BME280;57669;52.624;-1.688;2023-02-04T08:47:31;103140.80;;;6.83;53.86
70256;BME280;57669;52.624;-1.688;2023-02-04T08:49:56;103142.34;;;6.69;54.03
70256;BME280;57669;52.624;-1.688;2023-02-04T08:52:22;103141.45;;;7.52;52.08
70256;BME280;57669;52.624;-1.688;2023-02-04T08:54:48;103146.99;;;6.97;52.17
70256;BME280;57669;52.624;-1.688;2023-02-04T08:57:14;103146.83;;;7.41;51.84
70256;BME280;57669;52.624;-1.688;2023-02-04T08:59:40;103154.51;;;7.35;51.94
70256;BME280;57669;52.624;-1.688;2023-02-04T09:02:05;103146.63;;;8.27;49.62
70256;BME280;57669;52.624;-1.688;2023-02-04T09:04:31;103147.90;;;6.82;52.52
70256;BME280;57669;52.624;-1.688;2023-02-04T09:06:57;103148.08;;;7.64;50.84
70256;BME280;57669;52.624;-1.688;2023-02-04T09:09:23;103147.83;;;7.34;51.77
70256;BME280;57669;52.624;-1.688;2023-02-04T09:11:48;103150.50;;;7.78;50.71
70256;BME280;57669;52.624;-1.688;2023-02-04T09:14:14;103154.76;;;7.35;51.45
70256;BME280;57669;52.624;-1.688;2023-02-04T09:16:40;103154.86;;;7.53;51.45
70256;BME280;57669;52.624;-1.688;2023-02-04T09:19:06;103154.96;;;7.92;50.79
70256;BME280;57669;52.624;-1.688;2023-02-04T09:21:32;103152.38;;;7.74;51.03
70256;BME280;57669;52.624;-1.688;2023-02-04T09:23:57;103151.09;;;7.57;51.49
70256;BME280;57669;52.624;-1.688;2023-02-04T09:26:23;103148.35;;;7.66;51.45
70256;BME280;57669;52.624;-1.688;2023-02-04T09:28:49;103148.87;;;7.67;51.75
70256;BME280;57669;52.624;-1.688;2023-02-04T09:31:15;103148.38;;;7.35;52.11
70256;BME280;57669;52.624;-1.688;2023-02-04T09:33:41;103147.06;;;8.48;50.79
70256;BME280;57669;52.624;-1.688;2023-02-04T09:36:07;103144.95;;;8.09;50.40
70256;BME280;57669;52.624;-1.688;2023-02-04T09:38:32;103150.99;;;7.84;51.08
70256;BME280;57669;52.624;-1.688;2023-02-04T09:41:01;103155.66;;;7.43;51.51
70256;BME280;57669;52.624;-1.688;2023-02-04T09:43:26;103152.64;;;8.58;49.58
70256;BME280;57669;52.624;-1.688;2023-02-04T09:45:51;103148.57;;;8.41;48.97
70256;BME280;57669;52.624;-1.688;2023-02-04T09:48:16;103145.82;;;8.81;48.31
70256;BME280;57669;52.624;-1.688;2023-02-04T09:50:41;103148.20;;;8.24;48.94
70256;BME280;57669;52.624;-1.688;2023-02-04T09:53:12;103145.72;;;7.77;50.21
70256;BME280;57669;52.624;-1.688;2023-02-04T09:55:34;103143.26;;;8.69;48.65
70256;BME280;57669;52.624;-1.688;2023-02-04T09:57:59;103150.97;;;8.66;48.05
70256;BME280;57669;52.624;-1.688;2023-02-04T10:00:27;103154.95;;;7.91;49.48
70256;BME280;57669;52.624;-1.688;2023-02-04T10:02:51;103156.20;;;7.21;51.26
70256;BME280;57669;52.624;-1.688;2023-02-04T10:05:20;103154.93;;;7.17;52.16
70256;BME280;57669;52.624;-1.688;2023-02-04T10:07:43;103151.69;;;7.94;50.81
70256;BME280;57669;52.624;-1.688;2023-02-04T10:10:14;103151.82;;;7.83;50.48
70256;BME280;57669;52.624;-1.688;2023-02-04T10:12:33;103160.14;;;7.24;52.08
70256;BME280;57669;52.624;-1.688;2023-02-04T10:14:59;103153.72;;;7.61;50.67
70256;BME280;57669;52.624;-1.688;2023-02-04T10:17:25;103156.61;;;8.81;47.84
70256;BME280;57669;52.624;-1.688;2023-02-04T10:19:51;103161.95;;;8.06;49.54
70256;BME280;57669;52.624;-1.688;2023-02-04T10:22:18;103161.73;;;8.32;48.94
70256;BME280;57669;52.624;-1.688;2023-02-04T10:24:42;103159.93;;;8.75;47.89
70256;BME280;57669;52.624;-1.688;2023-02-04T10:27:09;103164.10;;;8.26;48.49
70256;BME280;57669;52.624;-1.688;2023-02-04T10:29:35;103164.48;;;8.09;49.00
70256;BME280;57669;52.624;-1.688;2023-02-04T10:31:59;103162.88;;;8.08;48.83
70256;BME280;57669;52.624;-1.688;2023-02-04T10:36:52;103161.57;;;7.66;49.63
70256;BME280;57669;52.624;-1.688;2023-02-04T10:39:18;103169.27;;;7.90;48.62
70256;BME280;57669;52.624;-1.688;2023-02-04T10:41:47;103168.53;;;7.23;49.31
70256;BME280;57669;52.624;-1.688;2023-02-04T10:44:10;103168.39;;;7.76;48.73
70256;BME280;57669;52.624;-1.688;2023-02-04T10:46:33;103166.83;;;7.97;48.25
70256;BME280;57669;52.624;-1.688;2023-02-04T10:48:59;103170.18;;;7.96;47.44
70256;BME280;57669;52.624;-1.688;2023-02-04T10:51:25;103174.30;;;8.07;47.44
70256;BME280;57669;52.624;-1.688;2023-02-04T10:53:50;103173.39;;;8.14;46.56
70256;BME280;57669;52.624;-1.688;2023-02-04T10:56:18;103172.74;;;8.49;46.52
70256;BME280;57669;52.624;-1.688;2023-02-04T10:58:42;103171.88;;;8.30;46.74
70256;BME280;57669;52.624;-1.688;2023-02-04T11:01:08;103170.67;;;7.67;47.02
70256;BME280;57669;52.624;-1.688;2023-02-04T11:03:40;103178.88;;;8.29;46.38
70256;BME280;57669;52.624;-1.688;2023-02-04T11:05:59;103178.59;;;7.95;46.91
70256;BME280;57669;52.624;-1.688;2023-02-04T11:08:26;103180.36;;;8.83;45.77
70256;BME280;57669;52.624;-1.688;2023-02-04T11:10:54;103184.80;;;9.09;44.48
70256;BME280;57669;52.624;-1.688;2023-02-04T11:13:22;103188.84;;;8.11;46.28
70256;BME280;57669;52.624;-1.688;2023-02-04T11:15:44;103188.74;;;8.29;45.96
70256;BME280;57669;52.624;-1.688;2023-02-04T11:18:10;103190.58;;;8.05;46.68
70256;BME280;57669;52.624;-1.688;2023-02-04T11:20:34;103187.33;;;7.66;47.27
70256;BME280;57669;52.624;-1.688;2023-02-04T11:25:29;103185.44;;;8.40;46.17
70256;BME280;57669;52.624;-1.688;2023-02-04T11:27:50;103181.05;;;8.25;46.24
70256;BME280;57669;52.624;-1.688;2023-02-04T11:30:21;103176.10;;;8.17;46.39
70256;BME280;57669;52.624;-1.688;2023-02-04T11:32:42;103169.81;;;7.78;47.09
70256;BME280;57669;52.624;-1.688;2023-02-04T11:35:20;103166.93;;;8.13;47.02
70256;BME280;57669;52.624;-1.688;2023-02-04T11:37:36;103167.51;;;8.25;46.98
70256;BME280;57669;52.624;-1.688;2023-02-04T11:39:59;103167.96;;;8.04;46.81
70256;BME280;57669;52.624;-1.688;2023-02-04T11:42:30;103165.63;;;8.00;47.15
70256;BME280;57669;52.624;-1.688;2023-02-04T11:44:53;103169.95;;;8.11;46.86
70256;BME280;57669;52.624;-1.688;2023-02-04T11:47:16;103171.92;;;7.59;47.56
70256;BME280;57669;52.624;-1.688;2023-02-04T11:49:43;103170.21;;;8.10;46.99
70256;BME280;57669;52.624;-1.688;2023-02-04T11:52:13;103168.43;;;7.75;48.77
70256;BME280;57669;52.624;-1.688;2023-02-04T11:54:34;103173.58;;;7.61;48.75
70256;BME280;57669;52.624;-1.688;2023-02-04T11:56:59;103171.78;;;7.38;49.26
70256;BME280;57669;52.624;-1.688;2023-02-04T11:59:25;103172.40;;;7.77;49.21
70256;BME280;57669;52.624;-1.688;2023-02-04T12:02:01;103169.19;;;8.24;47.63
70256;BME280;57669;52.624;-1.688;2023-02-04T12:04:22;103176.46;;;8.91;46.70
70256;BME280;57669;52.624;-1.688;2023-02-04T12:06:42;103175.45;;;8.14;48.44
70256;BME280;57669;52.624;-1.688;2023-02-04T12:09:22;103177.19;;;7.35;50.22
70256;BME280;57669;52.624;-1.688;2023-02-04T12:14:06;103180.38;;;8.34;48.34
70256;BME280;57669;52.624;-1.688;2023-02-04T12:16:25;103178.23;;;8.38;48.86
70256;BME280;57669;52.624;-1.688;2023-02-04T12:18:51;103178.51;;;7.49;51.02
70256;BME280;57669;52.624;-1.688;2023-02-04T12:21:17;103183.87;;;6.89;52.25
70256;BME280;57669;52.624;-1.688;2023-02-04T12:23:43;103180.49;;;7.31;51.37
70256;BME280;57669;52.624;-1.688;2023-02-04T12:26:09;103185.87;;;7.37;50.69
70256;BME280;57669;52.624;-1.688;2023-02-04T12:28:34;103186.84;;;7.37;51.61
70256;BME280;57669;52.624;-1.688;2023-02-04T12:31:00;103180.70;;;8.01;50.82
70256;BME280;57669;52.624;-1.688;2023-02-04T12:33:26;103181.62;;;7.84;51.07
70256;BME280;57669;52.624;-1.688;2023-02-04T12:35:52;103184.87;;;7.34;51.96
70256;BME280;57669;52.624;-1.688;2023-02-04T12:38:17;103180.47;;;7.88;50.84
70256;BME280;57669;52.624;-1.688;2023-02-04T12:40:43;103181.21;;;7.34;51.99
70256;BME280;57669;52.624;-1.688;2023-02-04T12:43:09;103175.28;;;7.77;50.59
70256;BME280;57669;52.624;-1.688;2023-02-04T12:45:35;103171.78;;;7.39;51.02
70256;BME280;57669;52.624;-1.688;2023-02-04T12:48:01;103171.70;;;8.29;49.57
70256;BME280;57669;52.624;-1.688;2023-02-04T12:50:26;103174.51;;;8.56;48.74
70256;BME280;57669;52.624;-1.688;2023-02-04T12:52:53;103176.83;;;7.86;50.08
70256;BME280;57669;52.624;-1.688;2023-02-04T12:55:20;103173.67;;;8.14;49.77
70256;BME280;57669;52.624;-1.688;2023-02-04T12:57:43;103177.37;;;7.90;50.16